sensor_id;sensor_type;location;lat;lon;timestamp;pressure;altitude;pressure_sealevel;temperature
51693;BMP280;37777;53.066;21.638;2024-01-11T00:04:00;101216.50;;;-2.95
51693;BMP280;37777;53.066;21.638;2024-01-11T00:11:01;101210.19;;;-2.94
51693;BMP280;37777;53.066;21.638;2024-01-11T00:18:03;101206.47;;;-2.93
51693;BMP280;37777;53.066;21.638;2024-01-11T00:25:05;101245.19;;;-2.92
51693;BMP280;37777;53.066;21.638;2024-01-11T00:32:07;101216.94;;;-2.98
51693;BMP280;37777;53.066;21.638;2024-01-11T00:39:09;101255.41;;;-2.95
51693;BMP280;37777;53.066;21.638;2024-01-11T00:46:10;101244.59;;;-2.94
51693;BMP280;37777;53.066;21.638;2024-01-11T00:53:12;101240.97;;;-3.00
51693;BMP280;37777;53.066;21.638;2024-01-11T01:00:16;101227.91;;;-2.94
51693;BMP280;37777;53.066;21.638;2024-01-11T01:07:17;101207.97;;;-2.97
51693;BMP280;37777;53.066;21.638;2024-01-11T01:14:19;101216.50;;;-2.95
51693;BMP280;37777;53.066;21.638;2024-01-11T01:21:21;101222.38;;;-2.93
51693;BMP280;37777;53.066;21.638;2024-01-11T01:28:22;101215.47;;;-2.94
51693;BMP280;37777;53.066;21.638;2024-01-11T01:35:23;101191.41;;;-2.92
51693;BMP280;37777;53.066;21.638;2024-01-11T01:42:25;101163.53;;;-2.95
51693;BMP280;37777;53.066;21.638;2024-01-11T01:49:27;101157.19;;;-2.94
51693;BMP280;37777;53.066;21.638;2024-01-11T01:56:29;101179.41;;;-2.95
51693;BMP280;37777;53.066;21.638;2024-01-11T02:03:31;101157.63;;;-2.97
51693;BMP280;37777;53.066;21.638;2024-01-11T02:10:34;101141.31;;;-2.94
51693;BMP280;37777;53.066;21.638;2024-01-11T02:17:39;101136.56;;;-2.92
51693;BMP280;37777;53.066;21.638;2024-01-11T02:24:41;101130.25;;;-2.91
51693;BMP280;37777;53.066;21.638;2024-01-11T02:31:43;101096.03;;;-2.92
51693;BMP280;37777;53.066;21.638;2024-01-11T02:38:44;101074.84;;;-2.92
51693;BMP280;37777;53.066;21.638;2024-01-11T02:45:46;101073.59;;;-2.90
51693;BMP280;37777;53.066;21.638;2024-01-11T02:52:47;101076.81;;;-2.88
51693;BMP280;37777;53.066;21.638;2024-01-11T02:59:49;101070.94;;;-2.90
51693;BMP280;37777;53.066;21.638;2024-01-11T03:06:50;101068.63;;;-2.86
51693;BMP280;37777;53.066;21.638;2024-01-11T03:13:52;101086.50;;;-2.82
51693;BMP280;37777;53.066;21.638;2024-01-11T03:20:54;101057.47;;;-2.76
51693;BMP280;37777;53.066;21.638;2024-01-11T03:27:55;101032.47;;;-2.69
51693;BMP280;37777;53.066;21.638;2024-01-11T03:34:57;101023.81;;;-2.64
51693;BMP280;37777;53.066;21.638;2024-01-11T03:41:58;101024.41;;;-2.62
51693;BMP280;37777;53.066;21.638;2024-01-11T03:48:59;101007.22;;;-2.59
51693;BMP280;37777;53.066;21.638;2024-01-11T03:56:01;100996.97;;;-2.56
51693;BMP280;37777;53.066;21.638;2024-01-11T04:03:03;101000.75;;;-2.52
51693;BMP280;37777;53.066;21.638;2024-01-11T04:10:05;100980.91;;;-2.49
51693;BMP280;37777;53.066;21.638;2024-01-11T04:17:07;100971.16;;;-2.48
51693;BMP280;37777;53.066;21.638;2024-01-11T04:24:08;100961.91;;;-2.46
51693;BMP280;37777;53.066;21.638;2024-01-11T04:31:10;100946.81;;;-2.45
51693;BMP280;37777;53.066;21.638;2024-01-11T04:38:11;100941.50;;;-2.45
51693;BMP280;37777;53.066;21.638;2024-01-11T04:45:13;100943.69;;;-2.42
51693;BMP280;37777;53.066;21.638;2024-01-11T04:52:14;100941.59;;;-2.40
51693;BMP280;37777;53.066;21.638;2024-01-11T04:59:16;100929.50;;;-2.36
51693;BMP280;37777;53.066;21.638;2024-01-11T05:06:18;100926.13;;;-2.31
51693;BMP280;37777;53.066;21.638;2024-01-11T05:13:20;100919.91;;;-2.25
51693;BMP280;37777;53.066;21.638;2024-01-11T05:20:22;100888.41;;;-2.22
51693;BMP280;37777;53.066;21.638;2024-01-11T05:27:23;100898.88;;;-2.15
51693;BMP280;37777;53.066;21.638;2024-01-11T05:34:25;100891.00;;;-2.10
51693;BMP280;37777;53.066;21.638;2024-01-11T05:41:26;100878.88;;;-2.06
51693;BMP280;37777;53.066;21.638;2024-01-11T05:48:28;100868.00;;;-2.04
51693;BMP280;37777;53.066;21.638;2024-01-11T05:55:29;100850.91;;;-1.96
51693;BMP280;37777;53.066;21.638;2024-01-11T06:02:31;100840.03;;;-1.95
51693;BMP280;37777;53.066;21.638;2024-01-11T06:09:33;100852.13;;;-1.87
51693;BMP280;37777;53.066;21.638;2024-01-11T06:16:34;100860.97;;;-1.81
51693;BMP280;37777;53.066;21.638;2024-01-11T06:23:36;100858.13;;;-1.75
51693;BMP280;37777;53.066;21.638;2024-01-11T06:30:37;100839.56;;;-1.75
51693;BMP280;37777;53.066;21.638;2024-01-11T06:37:39;100825.81;;;-1.72
51693;BMP280;37777;53.066;21.638;2024-01-11T06:44:40;100821.84;;;-1.69
51693;BMP280;37777;53.066;21.638;2024-01-11T06:51:42;100841.00;;;-1.67
51693;BMP280;37777;53.066;21.638;2024-01-11T06:58:43;100844.22;;;-1.65
51693;BMP280;37777;53.066;21.638;2024-01-11T07:05:45;100845.34;;;-1.61
51693;BMP280;37777;53.066;21.638;2024-01-11T07:12:47;100846.47;;;-1.57
51693;BMP280;37777;53.066;21.638;2024-01-11T07:19:49;100857.09;;;-1.57
51693;BMP280;37777;53.066;21.638;2024-01-11T07:26:50;100857.63;;;-1.55
51693;BMP280;37777;53.066;21.638;2024-01-11T07:33:52;100838.31;;;-1.50
51693;BMP280;37777;53.066;21.638;2024-01-11T07:40:54;100838.31;;;-1.50
51693;BMP280;37777;53.066;21.638;2024-01-11T07:47:55;100823.75;;;-1.47
51693;BMP280;37777;53.066;21.638;2024-01-11T07:54:58;100838.69;;;-1.41
51693;BMP280;37777;53.066;21.638;2024-01-11T08:02:07;100831.03;;;-1.38
51693;BMP280;37777;53.066;21.638;2024-01-11T08:09:08;100839.91;;;-1.32
51693;BMP280;37777;53.066;21.638;2024-01-11T08:16:17;100841.00;;;-1.28
51693;BMP280;37777;53.066;21.638;2024-01-11T08:23:19;100841.06;;;-1.23
51693;BMP280;37777;53.066;21.638;2024-01-11T08:30:21;100833.44;;;-1.19
51693;BMP280;37777;53.066;21.638;2024-01-11T08:37:23;100843.06;;;-1.13
51693;BMP280;37777;53.066;21.638;2024-01-11T08:44:25;100839.78;;;-0.98
51693;BMP280;37777;53.066;21.638;2024-01-11T08:51:27;100822.41;;;-0.84
51693;BMP280;37777;53.066;21.638;2024-01-11T08:58:28;100821.41;;;-0.77
51693;BMP280;37777;53.066;21.638;2024-01-11T09:05:29;100823.63;;;-0.69
51693;BMP280;37777;53.066;21.638;2024-01-11T09:12:31;100818.38;;;-0.59
51693;BMP280;37777;53.066;21.638;2024-01-11T09:19:32;100824.91;;;-0.44
51693;BMP280;37777;53.066;21.638;2024-01-11T09:26:39;100812.34;;;-0.22
51693;BMP280;37777;53.066;21.638;2024-01-11T09:33:40;100809.78;;;-0.11
51693;BMP280;37777;53.066;21.638;2024-01-11T09:40:59;100809.31;;;-0.03
51693;BMP280;37777;53.066;21.638;2024-01-11T09:48:06;100800.03;;;0.05
51693;BMP280;37777;53.066;21.638;2024-01-11T09:55:08;100781.19;;;0.11
51693;BMP280;37777;53.066;21.638;2024-01-11T10:02:10;100787.06;;;0.19
51693;BMP280;37777;53.066;21.638;2024-01-11T10:09:12;100784.19;;;0.20
51693;BMP280;37777;53.066;21.638;2024-01-11T10:16:14;100786.31;;;0.23
51693;BMP280;37777;53.066;21.638;2024-01-11T10:23:17;100782.59;;;0.24
51693;BMP280;37777;53.066;21.638;2024-01-11T10:30:22;100777.28;;;0.24
51693;BMP280;37777;53.066;21.638;2024-01-11T10:37:24;100774.34;;;0.26
51693;BMP280;37777;53.066;21.638;2024-01-11T10:44:29;100758.66;;;0.29
51693;BMP280;37777;53.066;21.638;2024-01-11T10:51:33;100742.47;;;0.41
51693;BMP280;37777;53.066;21.638;2024-01-11T10:58:35;100715.88;;;0.57
51693;BMP280;37777;53.066;21.638;2024-01-11T11:05:37;100717.47;;;0.58
51693;BMP280;37777;53.066;21.638;2024-01-11T11:12:40;100706.81;;;0.53
51693;BMP280;37777;53.066;21.638;2024-01-11T11:19:42;100688.72;;;0.55
51693;BMP280;37777;53.066;21.638;2024-01-11T11:26:43;100690.84;;;0.58
51693;BMP280;37777;53.066;21.638;2024-01-11T11:33:48;100680.97;;;0.58
51693;BMP280;37777;53.066;21.638;2024-01-11T11:40:52;100691.63;;;0.58
51693;BMP280;37777;53.066;21.638;2024-01-11T11:47:53;100697.78;;;0.59
51693;BMP280;37777;53.066;21.638;2024-01-11T12:03:20;100677.00;;;0.66
51693;BMP280;37777;53.066;21.638;2024-01-11T12:10:27;100680.22;;;0.68
51693;BMP280;37777;53.066;21.638;2024-01-11T12:17:34;100674.63;;;0.70
51693;BMP280;37777;53.066;21.638;2024-01-11T12:24:38;100674.34;;;0.71
51693;BMP280;37777;53.066;21.638;2024-01-11T12:31:40;100678.09;;;0.75
51693;BMP280;37777;53.066;21.638;2024-01-11T12:38:46;100681.03;;;0.74
51693;BMP280;37777;53.066;21.638;2024-01-11T12:46:04;100677.56;;;0.78
51693;BMP280;37777;53.066;21.638;2024-01-11T12:53:11;100681.81;;;0.79
51693;BMP280;37777;53.066;21.638;2024-01-11T13:00:22;100676.22;;;0.86
51693;BMP280;37777;53.066;21.638;2024-01-11T13:07:26;100682.38;;;0.87
51693;BMP280;37777;53.066;21.638;2024-01-11T13:14:27;100691.94;;;0.88
51693;BMP280;37777;53.066;21.638;2024-01-11T13:21:30;100671.72;;;0.87
51693;BMP280;37777;53.066;21.638;2024-01-11T13:28:37;100678.66;;;0.98
51693;BMP280;37777;53.066;21.638;2024-01-11T13:35:40;100666.41;;;1.07
51693;BMP280;37777;53.066;21.638;2024-01-11T13:42:42;100662.41;;;1.05
51693;BMP280;37777;53.066;21.638;2024-01-11T13:49:44;100645.63;;;1.09
51693;BMP280;37777;53.066;21.638;2024-01-11T13:56:47;100642.13;;;1.09
51693;BMP280;37777;53.066;21.638;2024-01-11T14:03:49;100628.03;;;1.03
51693;BMP280;37777;53.066;21.638;2024-01-11T14:10:50;100638.13;;;1.01
51693;BMP280;37777;53.066;21.638;2024-01-11T14:17:52;100640.53;;;0.92
51693;BMP280;37777;53.066;21.638;2024-01-11T14:24:54;100662.41;;;0.89
51693;BMP280;37777;53.066;21.638;2024-01-11T14:31:55;100667.47;;;0.96
51693;BMP280;37777;53.066;21.638;2024-01-11T14:38:57;100688.78;;;0.96
51693;BMP280;37777;53.066;21.638;2024-01-11T14:45:58;100695.19;;;0.95
51693;BMP280;37777;53.066;21.638;2024-01-11T14:53:00;100715.94;;;0.93
51693;BMP280;37777;53.066;21.638;2024-01-11T15:00:05;100705.28;;;0.88
51693;BMP280;37777;53.066;21.638;2024-01-11T15:07:09;100712.75;;;0.86
51693;BMP280;37777;53.066;21.638;2024-01-11T15:14:11;100736.19;;;0.89
51693;BMP280;37777;53.066;21.638;2024-01-11T15:21:13;100747.13;;;0.92
51693;BMP280;37777;53.066;21.638;2024-01-11T15:28:15;100730.88;;;0.94
51693;BMP280;37777;53.066;21.638;2024-01-11T15:35:17;100746.06;;;0.93
51693;BMP280;37777;53.066;21.638;2024-01-11T15:42:21;100751.13;;;0.90
51693;BMP280;37777;53.066;21.638;2024-01-11T15:49:25;100767.66;;;0.87
51693;BMP280;37777;53.066;21.638;2024-01-11T15:56:27;100767.66;;;0.87
51693;BMP280;37777;53.066;21.638;2024-01-11T16:03:28;100744.97;;;0.79
51693;BMP280;37777;53.066;21.638;2024-01-11T16:10:30;100760.97;;;0.79
51693;BMP280;37777;53.066;21.638;2024-01-11T16:17:31;100786.81;;;0.83
51693;BMP280;37777;53.066;21.638;2024-01-11T16:24:34;100793.44;;;0.76
51693;BMP280;37777;53.066;21.638;2024-01-11T16:31:36;100805.41;;;0.68
51693;BMP280;37777;53.066;21.638;2024-01-11T16:38:37;100813.66;;;0.61
51693;BMP280;37777;53.066;21.638;2024-01-11T16:45:39;100812.28;;;0.54
51693;BMP280;37777;53.066;21.638;2024-01-11T16:52:40;100831.91;;;0.42
51693;BMP280;37777;53.066;21.638;2024-01-11T16:59:41;100825.75;;;0.37
51693;BMP280;37777;53.066;21.638;2024-01-11T17:06:43;100843.88;;;0.29
51693;BMP280;37777;53.066;21.638;2024-01-11T17:13:45;100846.19;;;0.21
51693;BMP280;37777;53.066;21.638;2024-01-11T17:20:47;100861.28;;;0.10
51693;BMP280;37777;53.066;21.638;2024-01-11T17:27:49;100870.03;;;0.05
51693;BMP280;37777;53.066;21.638;2024-01-11T17:34:50;100876.13;;;0.01
51693;BMP280;37777;53.066;21.638;2024-01-11T17:41:57;100885.38;;;-0.07
51693;BMP280;37777;53.066;21.638;2024-01-11T17:49:01;100882.66;;;-0.12
51693;BMP280;37777;53.066;21.638;2024-01-11T17:56:03;100899.66;;;-0.13
51693;BMP280;37777;53.066;21.638;2024-01-11T18:03:06;100896.16;;;-0.19
51693;BMP280;37777;53.066;21.638;2024-01-11T18:10:08;100909.13;;;-0.28
51693;BMP280;37777;53.066;21.638;2024-01-11T18:17:10;100894.47;;;-0.30
51693;BMP280;37777;53.066;21.638;2024-01-11T18:24:12;100921.25;;;-0.37
51693;BMP280;37777;53.066;21.638;2024-01-11T18:31:15;100926.25;;;-0.41
51693;BMP280;37777;53.066;21.638;2024-01-11T18:38:20;100938.19;;;-0.43
51693;BMP280;37777;53.066;21.638;2024-01-11T18:45:24;100941.84;;;-0.50
51693;BMP280;37777;53.066;21.638;2024-01-11T18:52:26;100958.81;;;-0.56
51693;BMP280;37777;53.066;21.638;2024-01-11T18:59:28;100974.69;;;-0.61
51693;BMP280;37777;53.066;21.638;2024-01-11T19:06:31;100983.97;;;-0.63
51693;BMP280;37777;53.066;21.638;2024-01-11T19:13:33;100997.72;;;-0.67
51693;BMP280;37777;53.066;21.638;2024-01-11T19:20:34;101001.94;;;-0.71
51693;BMP280;37777;53.066;21.638;2024-01-11T19:27:36;100997.91;;;-0.73
51693;BMP280;37777;53.066;21.638;2024-01-11T19:34:37;101020.72;;;-0.77
51693;BMP280;37777;53.066;21.638;2024-01-11T19:41:39;101024.75;;;-0.75
51693;BMP280;37777;53.066;21.638;2024-01-11T19:48:41;101038.94;;;-0.69
51693;BMP280;37777;53.066;21.638;2024-01-11T19:55:42;101045.28;;;-0.70
51693;BMP280;37777;53.066;21.638;2024-01-11T20:02:44;101067.16;;;-0.63
51693;BMP280;37777;53.066;21.638;2024-01-11T20:09:45;101078.81;;;-0.69
51693;BMP280;37777;53.066;21.638;2024-01-11T20:16:47;101088.53;;;-0.75
51693;BMP280;37777;53.066;21.638;2024-01-11T20:23:48;101088.16;;;-0.84
51693;BMP280;37777;53.066;21.638;2024-01-11T20:30:50;101113.53;;;-0.93
51693;BMP280;37777;53.066;21.638;2024-01-11T20:37:52;101131.47;;;-1.00
51693;BMP280;37777;53.066;21.638;2024-01-11T20:44:54;101131.31;;;-1.10
51693;BMP280;37777;53.066;21.638;2024-01-11T20:51:55;101148.75;;;-1.14
51693;BMP280;37777;53.066;21.638;2024-01-11T20:58:59;101155.50;;;-1.24
51693;BMP280;37777;53.066;21.638;2024-01-11T21:06:01;101167.34;;;-1.31
51693;BMP280;37777;53.066;21.638;2024-01-11T21:13:06;101179.25;;;-1.34
51693;BMP280;37777;53.066;21.638;2024-01-11T21:20:07;101191.56;;;-1.40
51693;BMP280;37777;53.066;21.638;2024-01-11T21:27:10;101185.22;;;-1.39
51693;BMP280;37777;53.066;21.638;2024-01-11T21:34:12;101201.53;;;-1.47
51693;BMP280;37777;53.066;21.638;2024-01-11T21:41:14;101198.09;;;-1.47
51693;BMP280;37777;53.066;21.638;2024-01-11T21:48:15;101217.06;;;-1.68
51693;BMP280;37777;53.066;21.638;2024-01-11T21:55:17;101238.78;;;-1.71
51693;BMP280;37777;53.066;21.638;2024-01-11T22:02:19;101255.66;;;-1.77
51693;BMP280;37777;53.066;21.638;2024-01-11T22:09:20;101266.03;;;-1.75
51693;BMP280;37777;53.066;21.638;2024-01-11T22:16:22;101281.84;;;-1.80
51693;BMP280;37777;53.066;21.638;2024-01-11T22:23:23;101284.34;;;-1.97
51693;BMP280;37777;53.066;21.638;2024-01-11T22:30:25;101305.44;;;-2.03
51693;BMP280;37777;53.066;21.638;2024-01-11T22:37:28;101314.09;;;-2.19
51693;BMP280;37777;53.066;21.638;2024-01-11T22:44:30;101325.03;;;-2.27
51693;BMP280;37777;53.066;21.638;2024-01-11T22:51:31;101333.38;;;-2.42
51693;BMP280;37777;53.066;21.638;2024-01-11T22:58:33;101360.81;;;-2.48
51693;BMP280;37777;53.066;21.638;2024-01-11T23:05:35;101353.16;;;-2.57
51693;BMP280;37777;53.066;21.638;2024-01-11T23:12:36;101350.09;;;-2.72
51693;BMP280;37777;53.066;21.638;2024-01-11T23:19:38;101359.31;;;-2.93
51693;BMP280;37777;53.066;21.638;2024-01-11T23:26:40;101377.59;;;-3.10
51693;BMP280;37777;53.066;21.638;2024-01-11T23:33:41;101379.53;;;-3.18
51693;BMP280;37777;53.066;21.638;2024-01-11T23:40:43;101380.03;;;-3.27
51693;BMP280;37777;53.066;21.638;2024-01-11T23:47:45;101357.34;;;-3.67
51693;BMP280;37777;53.066;21.638;2024-01-11T23:54:46;101365.72;;;-3.70
